Friday, September 21, 2018, 9:27 PM EDT
Back to Local

KVSF, Hartness State Airport

Location: Perkinsville, VT, United States Lat: 43.35
Local Time: 9:27 PM EDT ( 1:27 GMT) Lon: -72.517
Time Zone: US/Eastern Elev: 577 ft

Show me the last for .
Show Decoded

2018-09-21 20:54 METAR KVSF 220054Z AUTO 16006KT 10SM OVC016 17/16 A2989 RMK AO2 SLP122 T01720161
                 =
2018-09-21 20:45 METAR KVSF 220045Z AUTO 15006KT 10SM OVC016 17/16 A2989 RMK AO2 T01720161 =
2018-09-21 19:54 METAR KVSF 212354Z AUTO 16007KT 120V180 10SM OVC013 17/16 A2991 RMK AO2 SLP127
                 T01720161 10172 20156 56029 =
2018-09-21 19:46 METAR KVSF 212346Z AUTO 16005G15KT 10SM OVC013 17/16 A2991 RMK AO2 T01720161 =
2018-09-21 18:54 METAR KVSF 212254Z AUTO VRB06KT 10SM OVC015 17/16 A2993 RMK AO2 SLP136 T01720161
                 =
2018-09-21 17:54 METAR KVSF 212154Z AUTO 15007KT 10SM OVC013 17/16 A2996 RMK AO2 SLP145 T01720161
                 =
2018-09-21 16:54 METAR KVSF 212054Z AUTO VRB04KT 10SM OVC014 17/16 A2999 RMK AO2 SLP157 T01670161
                 58035 =
2018-09-21 15:54 METAR KVSF 211954Z AUTO 14005KT 10SM OVC010 16/16 A3003 RMK AO2 CIG 008V012
                 SLP171 T01610161 =
2018-09-21 14:54 METAR KVSF 211854Z AUTO 14007KT 9SM OVC011 16/16 A3006 RMK AO2 CIG 007V012
                 SLP181 T01610156 =
2018-09-21 13:54 METAR KVSF 211754Z AUTO 16005KT 4SM BR OVC012 16/16 A3010 RMK AO2 SLP193 60002
                 T01560156 10156 20139 57029 =
2018-09-21 12:54 METAR KVSF 211654Z AUTO VRB04KT 4SM BR OVC012 16/15 A3013 RMK AO2 SLP203
                 T01560150 =
2018-09-21 12:36 METAR KVSF 211636Z AUTO VRB05KT 3SM BR OVC010 15/15 A3014 RMK AO2 CIG 006V013
                 T01500150 =
2018-09-21 12:24 METAR KVSF 211624Z AUTO 15004KT 3SM BR OVC009 14/14 A3015 RMK AO2 CIG 006V014
                 T01440144 =
2018-09-21 11:54 METAR KVSF 211554Z AUTO 15005KT 3SM BR OVC010 14/14 A3016 RMK AO2 SLP214
                 T01440144 =
2018-09-21 11:43 METAR KVSF 211543Z AUTO 15006KT 3SM BR OVC010 14/14 A3016 RMK AO2 T01440144 =
2018-09-21 10:54 METAR KVSF 211454Z AUTO 15005KT 5SM BR OVC008 14/14 A3019 RMK AO2 CIG 006V012
                 SLP223 60002 T01390139 58023 =
2018-09-21 09:54 METAR KVSF 211354Z AUTO 15005KT 8SM OVC009 14/14 A3021 RMK AO2 RAE24 CIG 007V012
                 SLP230 P0002 T01390139 =
2018-09-21 08:54 METAR KVSF 211254Z AUTO VRB05KT 6SM -RA BR OVC011 14/13 A3024 RMK AO2 RAB34
                 SLP241 P0000 T01390133 =
2018-09-21 07:54 METAR KVSF 211154Z AUTO 18003KT 10SM OVC012 14/13 A3026 RMK AO2 SLP246 60000
                 T01390128 10150 20139 50002 =
2018-09-21 06:54 METAR KVSF 211054Z AUTO 17006KT 10SM OVC012 14/13 A3026 RMK AO2 SLP247 T01440128
                 =
2018-09-21 05:54 METAR KVSF 210954Z AUTO 17005KT 10SM OVC013 14/13 A3025 RMK AO2 SLP245 T01440128
                 $ =
2018-09-21 04:54 METAR KVSF 210854Z AUTO 18003KT 10SM OVC014 14/13 A3025 RMK AO2 RAE0759 SLP245
                 P0000 60000 T01440128 57006 $ =
2018-09-21 03:54 METAR KVSF 210754Z AUTO 17005KT 10SM -RA OVC012 14/13 A3025 RMK AO2 RAB39 SLP246
                 P0000 T01440133 =
2018-09-21 03:07 METAR KVSF 210707Z AUTO 18004KT 10SM OVC013 15/13 A3026 RMK AO2 T01500133 =
2018-09-21 02:54 METAR KVSF 210654Z AUTO 18004KT 10SM OVC015 15/13 A3026 RMK AO2 SLP249 T01500133
                 =
2018-09-21 01:54 METAR KVSF 210554Z AUTO 15003KT 10SM OVC015 15/13 A3027 RMK AO2 SLP250 60000
                 T01500133 10161 20150 58001 =
2018-09-21 00:54 METAR KVSF 210454Z AUTO VRB06KT 10SM OVC016 15/14 A3028 RMK AO2 SLP255 T01500139
                 401830133 =
2018-09-20 23:54 METAR KVSF 210354Z AUTO 14004KT 10SM OVC020 15/14 A3028 RMK AO2 SLP255 T01500139
                 =
2018-09-20 23:19 METAR KVSF 210319Z AUTO 00000KT 10SM BKN021 BKN090 16/14 A3029 RMK AO2 T01560139
                 =
2018-09-20 22:54 METAR KVSF 210254Z AUTO 00000KT 10SM BKN090 16/14 A3027 RMK AO2 SLP252 60000
                 T01560144 51003 =
2018-09-20 21:54 METAR KVSF 210154Z AUTO 00000KT 10SM SCT029 OVC037 16/16 A3027 RMK AO2 SLP251
                 T01560156 =

Support USWX by starting your Amazon purchase here.